Time;durP1;ratioP1;P1;durP2;ratioP2;P2;SDS_P1;SDS_P2;PMS_P1;PMS_P2;Temp;Humidity;BMP_temperature;BMP_pressure;BME280_temperature;BME280_humidity;BME280_pressure;Samples;Min_cycle;Max_cycle;Signal;HPM_P1;HPM_P2
2021/01/07 00:02:21;;;;;;;15.38;10.68;;;;;;;1.18;87.57;99628.53;1740955;81;21206;-55
2021/01/07 00:04:49;;;;;;;17.10;10.20;;;;;;;1.12;87.82;99634.23;1717798;82;21169;-56
2021/01/07 00:07:17;;;;;;;18.98;11.83;;;;;;;1.13;87.90;99630.53;1716254;82;21141;-56
2021/01/07 00:09:45;;;;;;;20.88;11.45;;;;;;;1.24;87.66;99616.42;1716378;82;21113;-56
2021/01/07 00:12:13;;;;;;;19.73;12.30;;;;;;;1.27;87.57;99601.78;1737333;82;21343;-56
2021/01/07 00:14:41;;;;;;;21.52;13.72;;;;;;;1.21;87.79;99605.30;1743489;80;21177;-56
2021/01/07 00:17:09;;;;;;;22.60;14.38;;;;;;;1.26;87.77;99597.45;1742551;80;21169;-56
2021/01/07 00:19:37;;;;;;;23.77;13.05;;;;;;;1.30;87.63;99603.52;1747103;82;21217;-56
2021/01/07 00:22:05;;;;;;;25.25;14.43;;;;;;;1.23;87.86;99597.89;1746735;82;21153;-56
2021/01/07 00:24:33;;;;;;;15.35;9.80;;;;;;;1.17;88.16;99606.80;1746961;82;21229;-56
2021/01/07 00:27:00;;;;;;;19.27;11.88;;;;;;;1.23;88.06;99605.41;1696830;84;21185;-55
2021/01/07 00:29:28;;;;;;;22.87;13.68;;;;;;;1.25;88.04;99614.57;1699353;84;21197;-56
2021/01/07 00:31:57;;;;;;;19.73;11.28;;;;;;;1.21;88.25;99613.34;1699339;84;21490;-55
2021/01/07 00:34:24;;;;;;;23.57;13.78;;;;;;;1.19;88.42;99600.17;1701185;84;21169;-56
2021/01/07 00:36:56;;;;;;;17.37;10.78;;;;;;;1.32;88.03;99603.28;1732837;80;21560;-56
2021/01/07 00:39:24;;;;;;;17.20;11.33;;;;;;;1.30;88.10;99605.37;1732320;83;21184;-56
2021/01/07 00:41:55;;;;;;;23.83;13.98;;;;;;;1.25;88.31;99600.64;1726631;80;21185;-56
2021/01/07 00:44:23;;;;;;;36.53;19.73;;;;;;;1.35;88.11;99594.30;1711500;84;21660;-56
2021/01/07 00:46:52;;;;;;;27.52;16.05;;;;;;;1.37;87.93;99585.53;1735316;82;21196;-56
2021/01/07 00:49:20;;;;;;;23.05;13.95;;;;;;;1.30;88.16;99583.41;1737367;82;21192;-56
2021/01/07 00:51:48;;;;;;;20.70;13.18;;;;;;;1.26;88.31;99584.05;1737670;80;21151;-56
2021/01/07 00:54:22;;;;;;;25.92;15.18;;;;;;;1.34;88.06;99588.65;1740957;82;21181;-56
2021/01/07 00:56:50;;;;;;;25.75;15.90;;;;;;;1.35;88.02;99589.44;1740905;81;21182;-56
2021/01/07 00:59:21;;;;;;;25.32;15.68;;;;;;;1.28;88.35;99583.30;1740909;82;21181;-55
2021/01/07 01:01:49;;;;;;;29.70;17.10;;;;;;;1.29;88.38;99581.75;1738363;81;21210;-56
2021/01/07 01:04:18;;;;;;;22.02;14.20;;;;;;;1.38;88.07;99579.65;1737363;82;21261;-56
2021/01/07 01:06:46;;;;;;;25.40;13.75;;;;;;;1.34;88.26;99579.27;1737325;82;21222;-55
2021/01/07 01:09:14;;;;;;;26.33;15.58;;;;;;;1.27;88.61;99575.80;1737703;80;21160;-55
2021/01/07 01:11:45;;;;;;;22.32;12.68;;;;;;;1.41;88.15;99577.36;1737914;80;21185;-56
2021/01/07 01:14:17;;;;;;;37.00;19.42;;;;;;;1.46;88.04;99568.64;1740616;82;21189;-55
2021/01/07 01:16:50;;;;;;;29.35;15.68;;;;;;;1.40;88.30;99569.52;1741040;81;21328;-56
2021/01/07 01:19:19;;;;;;;23.07;13.60;;;;;;;1.40;88.43;99569.00;1718156;82;21185;-56
2021/01/07 01:21:51;;;;;;;25.12;15.08;;;;;;;1.47;88.19;99568.95;1725046;82;21592;-55
2021/01/07 01:24:20;;;;;;;30.50;18.77;;;;;;;1.44;88.35;99564.02;1752577;82;21561;-55
2021/01/07 01:26:55;;;;;;;25.15;15.72;;;;;;;1.34;88.81;99557.80;1752467;82;21237;-55
2021/01/07 01:29:23;;;;;;;26.10;15.35;;;;;;;1.42;88.67;99557.52;1747962;80;21189;-55
2021/01/07 01:31:51;;;;;;;27.48;16.42;;;;;;;1.46;88.54;99548.52;1745568;82;21199;-55
2021/01/07 01:34:20;;;;;;;26.77;17.23;;;;;;;1.45;88.67;99543.67;1745390;82;21188;-56
2021/01/07 01:36:48;;;;;;;26.10;16.37;;;;;;;1.44;88.75;99534.00;1745784;80;21134;-55
2021/01/07 01:39:16;;;;;;;30.72;17.67;;;;;;;1.53;88.52;99537.22;1746658;82;21629;-56
2021/01/07 01:41:45;;;;;;;21.97;13.08;;;;;;;1.45;88.76;99527.58;1746233;80;21141;-55
2021/01/07 01:44:14;;;;;;;26.87;15.30;;;;;;;1.43;88.83;99523.48;1746389;82;21224;-56
2021/01/07 01:46:42;;;;;;;26.95;15.30;;;;;;;1.54;88.44;99528.14;1747183;80;21153;-56
2021/01/07 01:49:12;;;;;;;23.65;14.80;;;;;;;1.46;88.67;99517.67;1751889;82;21187;-55
2021/01/07 01:51:40;;;;;;;24.60;14.35;;;;;;;1.45;88.70;99502.64;1745286;82;21579;-55
2021/01/07 01:54:08;;;;;;;23.90;15.72;;;;;;;1.55;88.33;99504.83;1745024;82;21630;-55
2021/01/07 01:56:36;;;;;;;28.70;16.87;;;;;;;1.49;88.51;99495.77;1746132;80;21134;-55
2021/01/07 01:59:04;;;;;;;26.45;14.95;;;;;;;1.46;88.64;99493.02;1746250;82;21201;-55
2021/01/07 02:01:32;;;;;;;22.37;13.80;;;;;;;1.51;88.51;99488.34;1746556;80;21177;-55
2021/01/07 02:04:00;;;;;;;25.95;15.13;;;;;;;1.58;88.23;99483.74;1746475;82;21197;-56
2021/01/07 02:06:28;;;;;;;25.20;14.78;;;;;;;1.50;88.33;99477.30;1738745;80;21695;-55
2021/01/07 02:08:56;;;;;;;25.88;16.37;;;;;;;1.58;88.18;99476.20;1722893;80;21129;-55
2021/01/07 02:11:24;;;;;;;24.92;15.53;;;;;;;1.67;87.84;99458.26;1746729;80;21603;-56
2021/01/07 02:13:52;;;;;;;28.73;15.08;;;;;;;1.64;87.93;99449.83;1746457;82;21719;-55
2021/01/07 02:16:23;;;;;;;25.45;14.45;;;;;;;1.55;88.21;99448.48;1746842;80;21198;-55
2021/01/07 02:18:55;;;;;;;28.12;16.95;;;;;;;1.58;88.03;99446.70;1721803;83;21121;-56
2021/01/07 02:21:24;;;;;;;31.07;17.92;;;;;;;1.64;87.85;99441.78;1717522;82;21219;-56
2021/01/07 02:23:53;;;;;;;29.42;16.97;;;;;;;1.61;88.02;99446.25;1717521;83;21651;-56
2021/01/07 02:26:22;;;;;;;24.98;15.40;;;;;;;1.55;88.25;99441.27;1734721;81;21174;-56
2021/01/07 02:28:50;;;;;;;25.55;15.83;;;;;;;1.61;87.99;99437.69;1741034;82;21673;-56
2021/01/07 02:31:18;;;;;;;25.82;15.80;;;;;;;1.64;87.92;99441.78;1741251;81;21186;-56
2021/01/07 02:33:46;;;;;;;23.30;14.00;;;;;;;1.58;88.11;99434.63;1743154;80;21184;-56
2021/01/07 02:36:15;;;;;;;25.52;14.53;;;;;;;1.62;88.04;99428.60;1709113;83;21166;-56
2021/01/07 02:38:43;;;;;;;24.57;14.73;;;;;;;1.64;87.93;99430.53;1741110;82;21190;-56
2021/01/07 02:41:11;;;;;;;26.33;14.60;;;;;;;1.57;88.20;99423.58;1741072;81;21186;-56
2021/01/07 02:43:39;;;;;;;20.65;13.13;;;;;;;1.62;88.08;99421.89;1741048;82;21205;-56
2021/01/07 02:46:08;;;;;;;21.90;13.80;;;;;;;1.68;87.89;99418.83;1746551;82;21578;-56
2021/01/07 02:48:36;;;;;;;25.72;13.98;;;;;;;1.56;88.20;99415.26;1721756;82;21173;-55
2021/01/07 02:51:04;;;;;;;23.12;13.98;;;;;;;1.50;88.44;99413.75;1741082;81;21158;-55
2021/01/07 02:53:34;;;;;;;20.85;13.85;;;;;;;1.58;88.16;99413.98;1717232;83;21185;-56
2021/01/07 02:56:02;;;;;;;27.67;16.42;;;;;;;1.60;88.13;99410.55;1732815;82;21225;-57
2021/01/07 02:58:32;;;;;;;24.82;14.58;;;;;;;1.55;88.37;99405.56;1739993;82;21344;-56
2021/01/07 03:01:00;;;;;;;22.05;13.58;;;;;;;1.55;88.40;99404.22;1740948;81;21181;-55
2021/01/07 03:03:27;;;;;;;25.00;15.85;;;;;;;1.63;88.13;99395.34;1743279;80;21146;-56
2021/01/07 03:05:55;;;;;;;28.17;16.02;;;;;;;1.56;88.31;99395.14;1747003;81;21211;-56
2021/01/07 03:08:23;;;;;;;24.37;14.87;;;;;;;1.58;88.33;99400.57;1738325;82;21592;-56
2021/01/07 03:10:53;;;;;;;25.62;15.70;;;;;;;1.62;88.15;99395.58;1737392;82;21210;-56
2021/01/07 03:13:20;;;;;;;27.20;14.53;;;;;;;1.55;88.37;99397.52;1740824;80;21150;-57
2021/01/07 03:15:49;;;;;;;27.27;15.43;;;;;;;1.55;88.38;99386.78;1719767;82;21197;-56
2021/01/07 03:18:17;;;;;;;25.77;15.78;;;;;;;1.61;88.16;99390.73;1741158;82;21193;-56
2021/01/07 03:20:45;;;;;;;29.72;17.17;;;;;;;1.58;88.28;99381.80;1720290;82;21173;-56
2021/01/07 03:23:14;;;;;;;25.88;15.83;;;;;;;1.57;88.37;99377.45;1744806;82;21181;-56
2021/01/07 03:25:42;;;;;;;25.15;15.90;;;;;;;1.66;88.09;99373.45;1744631;81;21430;-56
2021/01/07 03:28:10;;;;;;;28.87;16.30;;;;;;;1.69;88.00;99370.84;1741035;82;21178;-56
2021/01/07 03:30:37;;;;;;;27.37;16.57;;;;;;;1.62;88.20;99363.38;1740464;81;21149;-56
2021/01/07 03:33:06;;;;;;;28.98;17.70;;;;;;;1.61;88.31;99368.44;1740945;82;21621;-56
2021/01/07 03:35:33;;;;;;;27.75;16.67;;;;;;;1.66;88.16;99365.92;1738736;82;21174;-56
2021/01/07 03:38:01;;;;;;;25.00;14.65;;;;;;;1.57;88.38;99360.02;1737265;82;21184;-56
2021/01/07 03:40:29;;;;;;;26.62;16.67;;;;;;;1.61;88.33;99354.51;1737383;82;21686;-56
2021/01/07 03:42:57;;;;;;;27.82;15.95;;;;;;;1.69;88.10;99354.73;1746711;80;21625;-56
2021/01/07 03:45:25;;;;;;;28.30;17.42;;;;;;;1.64;88.23;99351.89;1732835;82;21121;-56
2021/01/07 03:47:52;;;;;;;24.05;15.30;;;;;;;1.66;88.31;99347.14;1747084;82;21157;-57
2021/01/07 03:50:20;;;;;;;20.68;13.72;;;;;;;1.76;87.94;99344.75;1744921;80;21134;-56
2021/01/07 03:52:48;;;;;;;25.72;17.15;;;;;;;1.72;88.00;99347.58;1720488;82;21198;-56
2021/01/07 03:55:16;;;;;;;21.33;14.63;;;;;;;1.67;88.21;99340.20;1745713;82;21149;-56
2021/01/07 03:57:44;;;;;;;21.93;14.25;;;;;;;1.78;87.92;99337.28;1746992;82;21145;-57
2021/01/07 04:00:13;;;;;;;24.57;15.83;;;;;;;1.80;87.85;99337.89;1746009;81;21318;-56
2021/01/07 04:02:41;;;;;;;23.98;15.75;;;;;;;1.69;88.14;99334.61;1741044;82;21202;-56
2021/01/07 04:05:10;;;;;;;21.25;14.05;;;;;;;1.76;88.00;99335.36;1738059;82;21117;-56
2021/01/07 04:07:38;;;;;;;22.77;14.90;;;;;;;1.82;87.73;99334.45;1691508;83;21152;-55
2021/01/07 04:10:08;;;;;;;21.50;13.72;;;;;;;1.78;87.92;99335.94;1738130;80;21172;-55
2021/01/07 04:12:36;;;;;;;22.85;14.60;;;;;;;1.68;88.22;99332.45;1740869;82;21127;-55
2021/01/07 04:15:06;;;;;;;20.08;14.13;;;;;;;1.78;87.93;99348.84;1741064;82;21198;-55
2021/01/07 04:17:34;;;;;;;21.57;14.15;;;;;;;1.78;87.84;99343.99;1720420;82;21627;-55
2021/01/07 04:20:01;;;;;;;20.60;14.43;;;;;;;1.72;88.08;99356.97;1728432;82;21225;-55
2021/01/07 04:22:30;;;;;;;22.80;14.35;;;;;;;1.73;88.13;99347.89;1716677;80;21186;-55
2021/01/07 04:24:57;;;;;;;22.98;15.83;;;;;;;1.77;87.91;99345.85;1738447;82;21168;-55
2021/01/07 04:27:25;;;;;;;26.93;15.40;;;;;;;1.72;88.13;99355.63;1737417;82;21188;-55
2021/01/07 04:29:53;;;;;;;27.35;16.30;;;;;;;1.66;88.35;99353.33;1737941;80;21304;-55
2021/01/07 04:32:22;;;;;;;26.02;17.07;;;;;;;1.78;88.07;99354.20;1737350;82;21623;-55
2021/01/07 04:34:49;;;;;;;28.30;16.30;;;;;;;1.85;87.84;99352.27;1737291;82;21767;-55
2021/01/07 04:37:17;;;;;;;27.40;15.83;;;;;;;1.78;88.09;99347.50;1694037;82;21635;-55
2021/01/07 04:39:45;;;;;;;19.87;13.08;;;;;;;1.77;88.12;99344.51;1743721;80;21695;-55
2021/01/07 04:42:14;;;;;;;21.40;14.33;;;;;;;1.75;88.09;99335.88;1719708;82;21490;-55
2021/01/07 04:44:42;;;;;;;19.40;12.63;;;;;;;1.70;88.30;99328.22;1717515;80;21158;-55
2021/01/07 04:47:10;;;;;;;16.62;11.95;;;;;;;1.73;88.28;99329.10;1717496;82;21188;-55
2021/01/07 04:49:39;;;;;;;20.40;13.48;;;;;;;1.76;88.13;99320.60;1709042;83;22022;-55
2021/01/07 04:52:08;;;;;;;21.25;14.30;;;;;;;1.74;88.21;99322.16;1685265;84;21186;-55
2021/01/07 04:54:35;;;;;;;18.70;12.15;;;;;;;1.71;88.36;99317.75;1705202;82;21202;-55
2021/01/07 04:57:03;;;;;;;17.95;12.10;;;;;;;1.82;88.07;99308.95;1741049;81;21589;-55
2021/01/07 04:59:31;;;;;;;20.88;12.85;;;;;;;1.81;88.00;99309.98;1740673;82;21541;-56
2021/01/07 05:01:59;;;;;;;22.93;13.90;;;;;;;1.73;88.26;99307.63;1717240;82;21628;-55
2021/01/07 05:04:27;;;;;;;21.87;14.83;;;;;;;1.77;88.25;99310.97;1729582;80;21177;-55
2021/01/07 05:06:55;;;;;;;25.30;14.25;;;;;;;1.88;87.84;99307.53;1741000;81;21177;-55
2021/01/07 05:09:23;;;;;;;29.95;17.55;;;;;;;1.81;88.07;99296.05;1740302;82;21153;-56
2021/01/07 05:11:52;;;;;;;27.45;16.55;;;;;;;1.77;88.24;99296.20;1740945;81;21583;-55
2021/01/07 05:14:20;;;;;;;26.33;15.68;;;;;;;1.88;87.94;99299.99;1737374;82;21208;-55
2021/01/07 05:16:47;;;;;;;36.05;17.37;;;;;;;1.89;87.81;99295.75;1718835;82;21177;-55
2021/01/07 05:19:16;;;;;;;24.80;14.55;;;;;;;1.81;88.08;99288.52;1737521;82;21556;-55
2021/01/07 05:21:44;;;;;;;26.35;14.87;;;;;;;1.78;88.25;99294.34;1737172;82;21156;-55
2021/01/07 05:24:12;;;;;;;27.40;14.13;;;;;;;1.86;87.93;99294.87;1745437;80;21153;-55
2021/01/07 05:26:40;;;;;;;24.18;13.78;;;;;;;1.80;88.10;99291.75;1691270;83;21161;-55
2021/01/07 05:29:08;;;;;;;23.92;12.37;;;;;;;1.78;88.24;99288.45;1687642;83;21168;-55
2021/01/07 05:31:36;;;;;;;28.30;14.68;;;;;;;1.84;88.06;99284.07;1726260;82;21158;-55
2021/01/07 05:34:04;;;;;;;30.68;15.05;;;;;;;1.82;88.11;99286.97;1686731;84;21154;-55
2021/01/07 05:36:32;;;;;;;27.40;13.62;;;;;;;1.71;88.55;99279.67;1740874;81;21573;-56
2021/01/07 05:39:06;;;;;;;31.02;14.38;;;;;;;1.81;88.26;99275.92;1738470;82;21113;-56
2021/01/07 05:41:34;;;;;;;29.75;16.15;;;;;;;1.87;88.12;99270.19;1737764;80;21198;-56
2021/01/07 05:44:08;;;;;;;27.90;14.50;;;;;;;1.82;88.35;99266.02;1740916;82;21202;-57
2021/01/07 05:46:36;;;;;;;21.85;12.20;;;;;;;1.84;88.37;99263.94;1740560;81;21627;-56
2021/01/07 05:49:04;;;;;;;26.00;15.53;;;;;;;1.89;88.17;99258.17;1737369;82;21164;-56
2021/01/07 05:51:32;;;;;;;31.23;15.25;;;;;;;1.83;88.33;99252.90;1740794;81;21234;-56
2021/01/07 05:54:00;;;;;;;18.98;10.82;;;;;;;1.79;88.53;99252.53;1742089;82;21181;-56
2021/01/07 05:56:28;;;;;;;24.20;12.13;;;;;;;1.86;88.41;99253.78;1738631;82;21222;-56
2021/01/07 05:58:57;;;;;;;22.58;12.10;;;;;;;1.85;88.41;99252.95;1738882;82;21110;-56
2021/01/07 06:01:25;;;;;;;20.70;11.68;;;;;;;1.81;88.62;99253.63;1743273;81;21183;-55
2021/01/07 06:03:53;;;;;;;18.00;10.28;;;;;;;1.82;88.69;99242.69;1747343;82;21546;-56
2021/01/07 06:06:22;;;;;;;15.95;10.25;;;;;;;1.92;88.36;99255.55;1747343;82;21303;-56
2021/01/07 06:08:53;;;;;;;18.02;11.55;;;;;;;1.88;88.47;99249.81;1745655;82;21168;-56
2021/01/07 06:11:23;;;;;;;11.65;8.65;;;;;;;1.92;88.46;99255.03;1740536;81;21109;-56
2021/01/07 06:13:53;;;;;;;16.65;9.05;;;;;;;2.03;88.10;99249.92;1737406;82;21137;-56
2021/01/07 06:16:23;;;;;;;17.42;10.78;;;;;;;1.93;88.37;99252.66;1731519;82;21101;-56
2021/01/07 06:18:53;;;;;;;14.73;9.88;;;;;;;1.87;88.68;99262.14;1737330;82;21220;-56
2021/01/07 06:21:24;;;;;;;14.00;8.58;;;;;;;1.96;88.40;99258.08;1720591;80;21198;-56
2021/01/07 06:23:54;;;;;;;16.65;11.08;;;;;;;1.95;88.39;99261.80;1721833;82;21130;-56
2021/01/07 06:26:25;;;;;;;15.38;9.53;;;;;;;1.89;88.58;99263.55;1726543;82;21173;-56
2021/01/07 06:28:59;;;;;;;15.83;9.93;;;;;;;1.92;88.60;99267.11;1711397;84;21166;-56
2021/01/07 06:31:32;;;;;;;32.48;13.75;;;;;;;1.95;88.48;99263.14;1701901;82;21215;-56
2021/01/07 06:34:00;;;;;;;28.47;14.73;;;;;;;1.92;88.66;99266.28;1744562;82;21122;-56
2021/01/07 06:36:43;;;;;;;23.65;14.10;;;;;;;1.94;88.67;99259.67;1722299;82;21292;-56
2021/01/07 06:39:12;;;;;;;40.90;15.60;;;;;;;2.00;88.43;99252.55;1691518;84;21178;-56
2021/01/07 06:41:51;;;;;;;16.10;10.80;;;;;;;1.96;88.60;99251.37;1718197;80;21645;-56
2021/01/07 06:44:20;;;;;;;24.70;14.38;;;;;;;1.91;88.82;99254.72;1719707;80;21169;-56
2021/01/07 06:46:48;;;;;;;18.10;10.60;;;;;;;2.07;88.42;99249.25;1732466;83;21616;-56
2021/01/07 06:49:28;;;;;;;22.77;11.90;;;;;;;2.03;88.50;99251.27;1734630;82;21181;-57
2021/01/07 06:52:05;;;;;;;18.40;11.90;;;;;;;1.97;88.72;99248.47;1736770;82;21173;-56
2021/01/07 06:54:35;;;;;;;18.95;9.65;;;;;;;2.02;88.70;99244.28;1737364;82;21136;-56
2021/01/07 06:57:07;;;;;;;24.72;12.78;;;;;;;2.07;88.51;99245.74;1737506;82;21180;-56
2021/01/07 06:59:35;;;;;;;15.23;10.00;;;;;;;1.97;88.86;99247.13;1741068;82;21174;-56
2021/01/07 07:02:05;;;;;;;24.02;12.55;;;;;;;1.97;88.96;99240.94;1717024;82;21193;-56
2021/01/07 07:04:33;;;;;;;30.85;12.35;;;;;;;2.10;88.57;99242.59;1740750;80;21563;-56
2021/01/07 07:07:05;;;;;;;17.52;10.75;;;;;;;2.06;88.74;99235.52;1746371;82;21148;-56
2021/01/07 07:09:39;;;;;;;17.52;9.78;;;;;;;2.07;88.80;99235.00;1742142;82;21132;-56
2021/01/07 07:12:07;;;;;;;21.27;11.28;;;;;;;2.17;88.44;99239.29;1737431;82;21625;-56
2021/01/07 07:14:35;;;;;;;21.45;10.50;;;;;;;2.18;88.41;99237.73;1737177;82;21216;-56
2021/01/07 07:17:08;;;;;;;17.45;10.18;;;;;;;2.09;88.77;99232.38;1737392;82;21198;-57
2021/01/07 07:19:40;;;;;;;18.57;11.50;;;;;;;2.14;88.67;99229.02;1742765;82;21743;-56
2021/01/07 07:22:09;;;;;;;22.05;12.90;;;;;;;2.22;88.40;99229.52;1716236;81;21174;-56
2021/01/07 07:24:45;;;;;;;21.30;11.73;;;;;;;2.16;88.61;99212.95;1713307;82;21152;-56
2021/01/07 07:27:13;;;;;;;18.67;12.63;;;;;;;2.10;88.80;99215.75;1741034;81;21185;-56
2021/01/07 07:29:46;;;;;;;25.95;13.83;;;;;;;2.19;88.57;99213.86;1737667;82;21618;-55
2021/01/07 07:32:26;;;;;;;21.40;11.95;;;;;;;2.24;88.44;99207.78;1737153;82;21689;-56
2021/01/07 07:34:55;;;;;;;19.57;12.30;;;;;;;2.16;88.74;99206.24;1737327;82;21129;-56
2021/01/07 07:37:25;;;;;;;24.12;14.15;;;;;;;2.21;88.70;99202.88;1737631;82;21604;-56
2021/01/07 07:40:00;;;;;;;18.67;13.78;;;;;;;2.28;88.45;99202.25;1743648;80;21181;-57
2021/01/07 07:42:29;;;;;;;22.07;12.88;;;;;;;2.19;88.74;99195.07;1746648;82;21129;-56
2021/01/07 07:44:58;;;;;;;19.40;13.18;;;;;;;2.20;88.83;99199.89;1739662;82;21556;-56
2021/01/07 07:47:26;;;;;;;16.90;11.95;;;;;;;2.31;88.49;99182.45;1737500;82;21580;-56
2021/01/07 07:52:24;;;;;;;20.15;12.10;;;;;;;2.29;88.69;99177.86;1790120;79;23033;-56
2021/01/07 07:55:04;;;;;;;19.82;12.95;;;;;;;2.24;88.79;99180.92;1758422;81;21689;-56
2021/01/07 07:57:49;;;;;;;25.45;14.68;;;;;;;2.35;88.44;99170.20;1725112;82;21176;-56
2021/01/07 08:00:17;;;;;;;19.35;12.45;;;;;;;2.29;88.63;99164.95;1752982;82;21169;-56
2021/01/07 08:02:45;;;;;;;20.35;13.48;;;;;;;2.25;88.81;99164.59;1753917;82;21602;-56
2021/01/07 08:05:29;;;;;;;22.32;13.90;;;;;;;2.36;88.57;99161.63;1725636;82;21282;-56
2021/01/07 08:07:57;;;;;;;29.02;15.58;;;;;;;2.35;88.56;99155.95;1745298;80;21272;-57
2021/01/07 08:10:26;;;;;;;24.98;16.07;;;;;;;2.32;88.76;99157.77;1754909;81;21157;-57
2021/01/07 08:12:53;;;;;;;35.85;26.30;;;;;;;2.40;88.62;99148.84;1755014;82;21593;-57
2021/01/07 08:15:31;;;;;;;29.23;20.27;;;;;;;2.43;88.47;99143.00;1754736;82;21362;-56
2021/01/07 08:18:21;;;;;;;42.05;25.23;;;;;;;2.37;88.77;99139.09;1755233;80;21141;-57
2021/01/07 08:20:52;;;;;;;38.38;23.77;;;;;;;2.43;88.72;99137.63;1754861;82;21173;-56
2021/01/07 08:23:22;;;;;;;37.13;26.20;;;;;;;2.49;88.45;99129.15;1754985;81;21336;-56
2021/01/07 08:25:52;;;;;;;30.17;18.23;;;;;;;2.44;88.73;99132.53;1754807;81;21173;-57
2021/01/07 08:28:40;;;;;;;34.18;19.92;;;;;;;2.44;88.86;99125.81;1759781;81;21612;-56
2021/01/07 08:31:15;;;;;;;50.43;21.15;;;;;;;2.56;88.48;99122.31;1755701;80;21210;-56
2021/01/07 08:33:42;;;;;;;40.55;21.73;;;;;;;2.54;88.62;99119.88;1754273;82;21162;-57
2021/01/07 08:36:17;;;;;;;32.93;17.95;;;;;;;2.51;88.84;99121.69;1757860;81;21201;-57
2021/01/07 08:38:52;;;;;;;31.17;19.23;;;;;;;2.60;88.51;99109.52;1760921;81;21278;-56
2021/01/07 08:41:26;;;;;;;37.45;20.12;;;;;;;2.57;88.62;99110.52;1760904;81;21136;-56
2021/01/07 08:46:42;;;;;;;62.33;42.43;;;;;;;2.63;88.78;99102.33;1776483;79;28813;-56
2021/01/07 08:49:18;;;;;;;47.15;28.45;;;;;;;2.85;87.92;99093.94;1738931;82;21164;-57
2021/01/07 08:51:47;;;;;;;38.90;23.32;;;;;;;2.95;87.44;99094.67;1726008;83;21184;-56
2021/01/07 08:54:18;;;;;;;40.20;19.60;;;;;;;2.86;87.66;99089.39;1728659;82;21117;-56
2021/01/07 08:56:48;;;;;;;33.53;18.55;;;;;;;2.88;87.70;99085.92;1725903;83;21156;-56
2021/01/07 08:59:38;;;;;;;32.13;19.17;;;;;;;2.72;88.26;99085.33;1725698;83;21188;-56
2021/01/07 09:02:21;;;;;;;26.20;15.80;;;;;;;2.72;88.47;99077.27;1702911;83;21218;-56
2021/01/07 09:04:49;;;;;;;38.65;20.75;;;;;;;2.79;88.33;99070.70;1728628;82;21124;-56
2021/01/07 09:07:19;;;;;;;32.45;18.40;;;;;;;2.70;88.77;99064.57;1725947;83;21188;-55
2021/01/07 09:09:56;;;;;;;31.20;18.60;;;;;;;2.71;88.92;99060.31;1752634;82;21180;-57
2021/01/07 09:12:36;;;;;;;30.68;16.32;;;;;;;2.75;88.76;99048.05;1756062;80;21329;-56
2021/01/07 09:15:10;;;;;;;24.87;16.23;;;;;;;2.70;89.04;99050.61;1731238;82;21172;-56
2021/01/07 09:20:33;;;;;;;27.95;17.80;;;;;;;2.86;88.84;99031.59;1819026;77;22647;-56
2021/01/07 09:23:07;;;;;;;28.62;16.97;;;;;;;2.71;89.19;99029.93;1794182;80;21148;-58
2021/01/07 09:25:35;;;;;;;28.92;16.05;;;;;;;2.80;89.07;99024.48;1789169;80;21174;-58
2021/01/07 09:28:03;;;;;;;32.17;16.50;;;;;;;2.88;88.82;99014.68;1793992;80;21104;-56
2021/01/07 09:30:31;;;;;;;27.85;15.75;;;;;;;2.84;88.97;99013.00;1794223;80;21276;-56
2021/01/07 09:32:58;;;;;;;27.40;17.23;;;;;;;2.82;89.06;99004.38;1781448;80;21589;-56
2021/01/07 09:35:27;;;;;;;21.02;13.95;;;;;;;2.99;88.66;98999.86;1744420;82;21363;-56
2021/01/07 09:37:56;;;;;;;29.50;16.17;;;;;;;3.01;88.58;98991.01;1747147;80;21189;-57
2021/01/07 09:40:24;;;;;;;21.05;13.32;;;;;;;2.98;88.82;98983.42;1744427;82;21193;-56
2021/01/07 09:42:51;;;;;;;23.50;14.68;;;;;;;3.00;88.76;98978.64;1747969;80;21170;-57
2021/01/07 09:45:19;;;;;;;23.73;13.18;;;;;;;3.15;88.34;98970.56;1773743;80;21166;-57
2021/01/07 09:47:46;;;;;;;23.22;14.05;;;;;;;3.12;88.47;98970.49;1786898;80;21143;-57
2021/01/07 09:50:14;;;;;;;20.23;12.93;;;;;;;3.06;88.69;98960.72;1794136;80;21184;-56
2021/01/07 09:52:41;;;;;;;22.35;13.78;;;;;;;3.15;88.46;98959.28;1766588;80;21112;-57
2021/01/07 09:55:10;;;;;;;28.00;15.85;;;;;;;3.16;88.37;98956.86;1770059;80;21126;-57
2021/01/07 09:57:38;;;;;;;23.77;14.50;;;;;;;3.13;88.61;98952.48;1719667;80;21281;-57
2021/01/07 10:00:07;;;;;;;22.37;13.60;;;;;;;3.18;88.59;98939.14;1794197;80;21571;-57
2021/01/07 10:02:35;;;;;;;26.27;14.83;;;;;;;3.27;88.22;98930.42;1752669;81;21585;-57
2021/01/07 10:05:03;;;;;;;22.67;14.03;;;;;;;3.31;88.25;98936.13;1763553;80;21299;-57
2021/01/07 10:07:30;;;;;;;23.00;13.50;;;;;;;3.25;88.52;98925.01;1793832;80;21197;-56
2021/01/07 10:09:58;;;;;;;20.62;12.03;;;;;;;3.30;88.43;98919.17;1794263;80;21143;-57
2021/01/07 10:12:26;;;;;;;21.80;13.03;;;;;;;3.38;88.16;98912.05;1793867;80;21189;-57
2021/01/07 10:14:54;;;;;;;22.15;13.15;;;;;;;3.34;88.38;98908.20;1752257;80;21161;-57
2021/01/07 10:17:22;;;;;;;22.80;14.18;;;;;;;3.41;88.35;98901.31;1724427;82;21215;-57
2021/01/07 10:19:49;;;;;;;20.30;12.60;;;;;;;3.55;88.08;98899.09;1742992;82;21162;-57
2021/01/07 10:22:18;;;;;;;23.07;14.75;;;;;;;3.52;88.29;98885.61;1735161;82;21192;-57
2021/01/07 10:24:46;;;;;;;22.22;14.70;;;;;;;3.51;88.34;98890.70;1700061;82;21624;-57
2021/01/07 10:27:17;;;;;;;27.42;15.90;;;;;;;3.65;88.04;98887.95;1712196;82;21319;-57
2021/01/07 10:29:46;;;;;;;24.45;13.80;;;;;;;3.68;87.93;98879.41;1731553;82;21163;-57
2021/01/07 10:32:18;;;;;;;21.37;12.18;;;;;;;3.62;88.07;98864.22;1711454;82;21187;-57
2021/01/07 10:34:49;;;;;;;21.27;12.07;;;;;;;3.68;87.99;98863.78;1738389;82;21183;-57
2021/01/07 10:37:18;;;;;;;26.17;12.73;;;;;;;3.71;87.59;98856.02;1738272;82;21180;-57
2021/01/07 10:39:48;;;;;;;20.25;10.48;;;;;;;3.69;87.72;98849.23;1737788;82;21293;-57
2021/01/07 10:42:18;;;;;;;19.73;10.48;;;;;;;3.65;87.83;98841.41;1738121;82;21309;-57
2021/01/07 10:44:47;;;;;;;13.80;8.78;;;;;;;3.71;87.51;98845.78;1710832;82;21143;-56
2021/01/07 10:47:15;;;;;;;16.90;8.30;;;;;;;3.68;87.36;98834.99;1708726;84;21460;-57
2021/01/07 10:49:45;;;;;;;11.15;6.95;;;;;;;3.59;87.50;98835.64;1718009;83;21187;-56
2021/01/07 10:52:35;;;;;;;11.75;7.65;;;;;;;3.67;87.32;98827.16;1737474;82;21197;-56
2021/01/07 10:55:24;;;;;;;12.82;7.25;;;;;;;3.74;87.25;98825.09;1712169;83;21895;-57
2021/01/07 10:58:25;;;;;;;12.13;8.08;;;;;;;3.66;87.55;98819.61;1734099;83;21284;-57
2021/01/07 11:01:19;;;;;;;12.45;8.63;;;;;;;3.73;87.48;98817.55;1752525;82;21190;-57
2021/01/07 11:04:07;;;;;;;14.23;8.63;;;;;;;3.80;87.34;98811.97;1753282;82;21141;-56
2021/01/07 11:06:37;;;;;;;10.18;6.28;;;;;;;3.68;87.60;98806.73;1747842;81;21172;-56
2021/01/07 11:09:16;;;;;;;10.93;6.78;;;;;;;3.74;87.37;98807.07;1753414;82;21307;-57
2021/01/07 11:11:47;;;;;;;10.13;6.58;;;;;;;3.82;87.08;98796.41;1752270;82;21186;-57
2021/01/07 11:14:28;;;;;;;10.13;6.97;;;;;;;3.78;87.17;98796.09;1751926;82;21176;-56
2021/01/07 11:17:00;;;;;;;9.88;6.78;;;;;;;3.72;87.41;98790.89;1753750;82;21149;-57
2021/01/07 11:19:27;;;;;;;10.40;6.75;;;;;;;3.80;87.09;98783.18;1752560;81;21349;-56
2021/01/07 11:22:02;;;;;;;10.58;6.35;;;;;;;3.82;86.95;98770.83;1753903;82;21601;-57
2021/01/07 11:24:29;;;;;;;8.93;6.15;;;;;;;3.75;87.19;98767.52;1753723;82;21242;-56
2021/01/07 11:26:57;;;;;;;10.30;6.87;;;;;;;3.77;87.22;98766.71;1753861;82;21176;-57
2021/01/07 11:29:25;;;;;;;13.32;8.20;;;;;;;3.82;86.94;98752.80;1746572;82;21135;-57
2021/01/07 11:31:53;;;;;;;10.23;6.08;;;;;;;3.80;87.10;98748.18;1754923;81;21188;-57
2021/01/07 11:34:21;;;;;;;12.37;7.53;;;;;;;3.77;87.18;98743.83;1738368;82;21742;-57
2021/01/07 11:37:22;;;;;;;8.00;5.30;;;;;;;3.87;86.92;98737.21;1737892;82;21172;-56
2021/01/07 11:40:21;;;;;;;9.60;5.80;;;;;;;3.81;87.04;98738.23;1708928;84;21655;-56
2021/01/07 11:43:16;;;;;;;;;;;;;;;3.80;87.24;98730.69;1711371;84;21947;-57
2021/01/07 11:45:46;;;;;;;9.80;5.45;;;;;;;3.92;86.91;98715.74;1708619;83;20152;-57
2021/01/07 11:48:17;;;;;;;9.20;6.12;;;;;;;3.80;87.30;98707.80;1709660;82;21128;-57
2021/01/07 11:50:44;;;;;;;8.28;5.80;;;;;;;3.77;87.47;98712.34;1650154;83;21410;-56